Spadeadam Airport, United Kingdom

12:43 AM GMT on February 11, 2016 (GMT +0000)
South Tynedale | | Change Station
CLOSE
Current Station
Personal Weather Station
Location: Lambley,
Elevation: 610 ft
Nearby Weather Stations

Elev 610 ft 54.92 °N, 2.51 °W | Updated 1 second ago

Partly Cloudy
Partly Cloudy
35.8 °F
Feels Like 28 °F
N
10.7
Wind Variable Wind from WSW
Gusts 12.3 mph

Today
High -- | Low -- °F
--% Chance of Precip.
Yesterday
High -- | Low -- °F
Precip. -- in
Pressure 29.50 in
Visibility 6.2 miles
Clouds Few 3000 ft
Windchill 28 °F
Dew Point 29 °F
Humidity 76%
Rainfall 0.00 in
Snow Depth Not available.
7:42 AM 5:06 PM
Waxing Crescent, 8% visible
METAR EGNT 110020Z 27012KT 9999 FEW030 02/M01 Q0999
Pressure 29.50 in
Visibility 6.2 miles
Clouds Few 3000 ft
Windchill 28 °F
Dew Point 29 °F
Humidity 76%
Rainfall 0.00 in
Snow Depth Not available.
7:42 AM 5:06 PM
Waxing Crescent, 8% visible
METAR EGNT 110020Z 27012KT 9999 FEW030 02/M01 Q0999

10-Day Weather Forecast

Almanac

Astronomy

Feb. 11, 2016 Rise Set
Actual Time
Civil Twilight
Nautical Twilight
Astronomical Twilight
Moon
Length of Visible Light
Length of Day
Tomorrow will be .
, % of the Moon is Illuminated

Today's Extremes

Country Highs Country Lows

Community

WunderPhotos

Upload Photos

1,891,948 photos uploaded!

WunderBlog® & News

Nearby

Air Quality

  Air Quality AQ Index Pollutant
Not available.

Snow Depth

Station Depth Elevation

Earthquake Activity

City Distance Mag. Time & Date
Minimum magnitude displayed is 2.5.

Coastal Water Temperatures

Place Temperature

Stations

Nearby Weather Stations

Station Location Temp. Windchill Dew Point Humidity Wind Precip. Elev Updated Type